createdAt,value
2018-12-18T00:00:47.604Z,20.20
2018-12-18T00:03:15.687Z,21.37
2018-12-18T00:05:43.792Z,16.83
2018-12-18T00:08:11.895Z,15.83
2018-12-18T00:10:45.818Z,17.93
2018-12-18T00:13:13.914Z,21.17
2018-12-18T00:15:42.075Z,17.33
2018-12-18T00:18:10.208Z,21.43
2018-12-18T00:20:38.345Z,15.73
2018-12-18T00:23:06.452Z,20.70
2018-12-18T00:25:34.581Z,18.40
2018-12-18T00:28:02.736Z,14.67
2018-12-18T00:30:30.873Z,13.53
2018-12-18T00:32:58.937Z,13.50
2018-12-18T00:35:27.073Z,13.03
2018-12-18T00:37:55.181Z,12.07
2018-12-18T00:40:28.374Z,14.10
2018-12-18T00:42:56.572Z,12.97
2018-12-18T00:45:24.730Z,14.50
2018-12-18T00:47:53.529Z,16.20
2018-12-18T00:50:35.551Z,14.63
2018-12-18T00:53:03.616Z,15.90
2018-12-18T00:55:31.749Z,18.27
2018-12-18T00:58:00.007Z,13.17
2018-12-18T01:00:28.418Z,15.13
2018-12-18T01:02:56.602Z,9.63
2018-12-18T01:05:24.772Z,11.43
2018-12-18T01:07:53.363Z,12.87
2018-12-18T01:10:22.299Z,13.83
2018-12-18T01:12:50.527Z,12.77
2018-12-18T01:15:18.745Z,11.77
2018-12-18T01:17:46.900Z,14.40
2018-12-18T01:20:24.700Z,13.23
2018-12-18T01:22:52.815Z,13.43
2018-12-18T01:25:20.935Z,10.20
2018-12-18T01:27:49.052Z,12.40
2018-12-18T01:30:17.117Z,14.70
2018-12-18T01:32:45.196Z,13.27
2018-12-18T01:35:13.264Z,12.93
2018-12-18T01:37:41.438Z,14.00
2018-12-18T01:40:14.764Z,12.53
2018-12-18T01:42:42.814Z,13.93
2018-12-18T01:45:10.912Z,11.47
2018-12-18T01:47:39.027Z,10.33
2018-12-18T01:50:07.166Z,16.07
2018-12-18T01:52:35.337Z,11.63
2018-12-18T01:55:06.179Z,10.37
2018-12-18T01:57:35.013Z,10.00
2018-12-18T02:00:04.032Z,11.13
2018-12-18T02:02:32.196Z,15.27
2018-12-18T02:05:00.369Z,12.83
2018-12-18T02:07:28.583Z,12.77
2018-12-18T02:09:56.709Z,11.50
2018-12-18T02:12:24.923Z,12.60
2018-12-18T02:14:53.214Z,12.87
2018-12-18T02:17:21.280Z,11.80
2018-12-18T02:19:58.941Z,13.67
2018-12-18T02:22:26.973Z,12.90
2018-12-18T02:24:55.206Z,15.33
2018-12-18T02:27:23.294Z,13.47
2018-12-18T02:29:51.384Z,13.63
2018-12-18T02:32:19.509Z,10.07
2018-12-18T02:34:47.541Z,10.53
2018-12-18T02:37:15.648Z,13.20
2018-12-18T02:39:43.703Z,13.33
2018-12-18T02:42:11.778Z,21.57
2018-12-18T02:44:39.915Z,13.80
2018-12-18T02:47:08.003Z,14.13
2018-12-18T02:49:49.969Z,15.23
2018-12-18T02:52:18.007Z,15.00
2018-12-18T02:54:46.080Z,15.30
2018-12-18T02:57:14.147Z,12.03
2018-12-18T02:59:42.353Z,15.63
2018-12-18T03:02:10.403Z,12.53
2018-12-18T03:04:38.580Z,11.83
2018-12-18T03:07:06.637Z,14.27
2018-12-18T03:09:34.769Z,12.13
2018-12-18T03:12:03.159Z,11.80
2018-12-18T03:14:31.266Z,13.07
2018-12-18T03:16:59.388Z,11.87
2018-12-18T03:19:27.460Z,13.50
2018-12-18T03:21:55.626Z,13.33
2018-12-18T03:24:23.682Z,14.30
2018-12-18T03:26:51.780Z,14.53
2018-12-18T03:29:20.061Z,14.63
2018-12-18T03:31:52.963Z,16.83
2018-12-18T03:34:28.135Z,19.13
2018-12-18T03:36:51.287Z,14.17
2018-12-18T03:39:19.446Z,14.20
2018-12-18T03:41:47.951Z,12.80
2018-12-18T03:44:16.077Z,12.53
2018-12-18T03:46:44.223Z,15.73
2018-12-18T03:49:12.472Z,15.07
2018-12-18T03:51:40.544Z,13.20
2018-12-18T03:54:08.663Z,14.90
2018-12-18T03:56:36.824Z,14.90
2018-12-18T03:59:10.099Z,14.57
2018-12-18T04:01:38.169Z,12.60
2018-12-18T04:04:06.319Z,14.13
2018-12-18T04:06:34.507Z,15.00
2018-12-18T04:09:03.808Z,14.30
2018-12-18T04:11:31.897Z,12.70
2018-12-18T04:13:59.937Z,16.83
2018-12-18T04:16:28.006Z,19.87
2018-12-18T04:18:56.296Z,17.00
2018-12-18T04:21:24.400Z,14.60
2018-12-18T04:23:52.514Z,18.20
2018-12-18T04:26:20.605Z,15.83
2018-12-18T04:28:53.969Z,17.53
2018-12-18T04:31:22.008Z,16.23
2018-12-18T04:33:50.087Z,16.70
2018-12-18T04:36:18.233Z,17.13
2018-12-18T04:38:46.362Z,14.93
2018-12-18T04:41:14.568Z,16.40
2018-12-18T04:43:42.644Z,18.30
2018-12-18T04:46:10.780Z,15.30
2018-12-18T04:48:38.832Z,13.43
2018-12-18T04:51:07.110Z,24.43
2018-12-18T04:53:35.366Z,22.00
2018-12-18T04:56:03.426Z,35.20
2018-12-18T04:58:31.624Z,36.23
2018-12-18T05:00:59.710Z,20.07
2018-12-18T05:03:27.939Z,17.53
2018-12-18T05:05:56.087Z,20.60
2018-12-18T05:08:24.237Z,24.90
2018-12-18T05:10:52.554Z,23.97
2018-12-18T05:13:20.730Z,24.60
2018-12-18T05:15:48.975Z,29.33
2018-12-18T05:18:17.083Z,27.30
2018-12-18T05:20:46.673Z,23.43
2018-12-18T05:23:14.751Z,19.87
2018-12-18T05:25:42.807Z,19.07
2018-12-18T05:28:10.905Z,22.73
2018-12-18T05:30:39.148Z,21.73
2018-12-18T05:33:07.279Z,22.07
2018-12-18T05:35:35.373Z,16.43
2018-12-18T05:38:03.569Z,17.23
2018-12-18T05:40:31.809Z,15.63
2018-12-18T05:42:59.958Z,15.40
2018-12-18T05:45:28.104Z,16.90
2018-12-18T05:47:56.196Z,19.20
2018-12-18T05:50:24.401Z,18.17
2018-12-18T05:52:52.507Z,15.97
2018-12-18T05:55:20.571Z,15.87
2018-12-18T05:57:48.643Z,18.20
2018-12-18T06:00:16.822Z,19.33
2018-12-18T06:02:44.933Z,16.33
2018-12-18T06:05:13.123Z,20.40
2018-12-18T06:07:41.282Z,13.57
2018-12-18T06:10:09.436Z,14.17
2018-12-18T06:12:37.601Z,17.33
2018-12-18T06:15:05.876Z,17.07
2018-12-18T06:17:33.972Z,18.57
2018-12-18T06:20:02.089Z,17.03
2018-12-18T06:22:30.231Z,21.80
2018-12-18T06:24:58.458Z,19.40
2018-12-18T06:27:37.312Z,19.17
2018-12-18T06:30:16.416Z,18.37
2018-12-18T06:32:46.718Z,20.93
2018-12-18T06:35:14.919Z,25.40
2018-12-18T06:37:43.042Z,33.70
2018-12-18T06:40:11.519Z,32.30
2018-12-18T06:42:39.659Z,22.07
2018-12-18T06:45:07.933Z,27.97
2018-12-18T06:47:36.063Z,23.37
2018-12-18T06:50:04.465Z,25.10
2018-12-18T06:52:32.561Z,23.27
2018-12-18T06:55:00.653Z,19.53
2018-12-18T06:57:28.709Z,25.13
2018-12-18T06:59:56.863Z,25.93
2018-12-18T07:02:24.986Z,22.03
2018-12-18T07:04:53.164Z,24.20
2018-12-18T07:07:21.267Z,27.87
2018-12-18T07:09:49.393Z,26.00
2018-12-18T07:12:17.515Z,23.87
2018-12-18T07:14:45.643Z,29.70
2018-12-18T07:17:13.646Z,21.77
2018-12-18T07:19:46.889Z,19.03
2018-12-18T07:22:14.925Z,21.47
2018-12-18T07:24:43.006Z,30.50
2018-12-18T07:27:11.149Z,27.03
2018-12-18T07:29:39.605Z,28.00
2018-12-18T07:32:07.694Z,17.60
2018-12-18T07:34:35.785Z,29.47
2018-12-18T07:37:03.869Z,21.40
2018-12-18T07:39:32.004Z,25.73
2018-12-18T07:42:00.041Z,25.57
2018-12-18T07:44:28.103Z,26.27
2018-12-18T07:46:56.125Z,23.87
2018-12-18T07:49:24.258Z,27.40
2018-12-18T07:51:52.382Z,33.63
2018-12-18T07:54:20.456Z,28.27
2018-12-18T07:56:48.602Z,33.57
2018-12-18T07:59:16.728Z,28.90
2018-12-18T08:01:44.862Z,24.27
2018-12-18T08:04:12.983Z,24.47
2018-12-18T08:06:41.162Z,24.53
2018-12-18T08:09:09.240Z,27.33
2018-12-18T08:11:37.346Z,23.80
2018-12-18T08:14:05.417Z,29.07
2018-12-18T08:16:33.517Z,34.20
2018-12-18T08:19:01.686Z,26.40
2018-12-18T08:21:29.782Z,23.80
2018-12-18T08:23:57.870Z,23.87
2018-12-18T08:26:26.006Z,23.40
2018-12-18T08:28:54.063Z,25.43
2018-12-18T08:31:22.225Z,23.70
2018-12-18T08:33:50.348Z,26.23
2018-12-18T08:36:18.652Z,26.77
2018-12-18T08:38:46.751Z,29.00
2018-12-18T08:41:14.794Z,23.50
2018-12-18T08:43:43.029Z,24.43
2018-12-18T08:46:11.209Z,27.93
2018-12-18T08:48:39.301Z,21.23
2018-12-18T08:51:07.369Z,22.10
2018-12-18T08:53:35.528Z,23.93
2018-12-18T08:56:03.752Z,24.93
2018-12-18T08:58:31.952Z,23.80
2018-12-18T09:01:00.074Z,25.87
2018-12-18T09:03:28.150Z,23.73
2018-12-18T09:05:56.372Z,29.33
2018-12-18T09:08:24.540Z,32.00
2018-12-18T09:10:52.932Z,24.80
2018-12-18T09:13:20.921Z,23.77
2018-12-18T09:15:54.785Z,25.30
2018-12-18T09:18:22.970Z,26.87
2018-12-18T09:20:51.484Z,28.67
2018-12-18T09:23:19.593Z,27.27
2018-12-18T09:25:47.886Z,23.57
2018-12-18T09:28:15.963Z,25.40
2018-12-18T09:30:44.240Z,23.50
2018-12-18T09:33:12.393Z,17.97
2018-12-18T09:35:41.110Z,18.27
2018-12-18T09:38:15.122Z,21.33
2018-12-18T09:40:48.874Z,19.20
2018-12-18T09:43:22.559Z,23.17
2018-12-18T09:45:50.607Z,21.93
2018-12-18T09:48:18.818Z,16.23
2018-12-18T09:50:47.196Z,14.87
2018-12-18T09:53:15.207Z,16.37
2018-12-18T09:55:43.372Z,18.53
2018-12-18T09:58:11.462Z,17.27
2018-12-18T10:00:40.073Z,17.77
2018-12-18T10:03:08.436Z,14.07
2018-12-18T10:05:36.574Z,16.97
2018-12-18T10:08:04.675Z,16.97
2018-12-18T10:10:32.915Z,16.23
2018-12-18T10:13:01.054Z,13.87
2018-12-18T10:15:29.166Z,14.20
2018-12-18T10:17:57.295Z,12.23
2018-12-18T10:20:25.396Z,13.10
2018-12-18T10:22:53.550Z,16.13
2018-12-18T10:25:21.702Z,14.83
2018-12-18T10:27:49.910Z,12.67
2018-12-18T10:30:18.223Z,16.70
2018-12-18T10:32:46.279Z,12.27
2018-12-18T10:35:14.419Z,14.00
2018-12-18T10:37:42.665Z,11.73
2018-12-18T10:40:11.273Z,12.27
2018-12-18T10:42:39.359Z,11.83
2018-12-18T10:45:13.937Z,13.50
2018-12-18T10:47:42.171Z,9.50
2018-12-18T10:50:10.396Z,5.97
2018-12-18T10:52:38.539Z,9.57
2018-12-18T10:55:07.153Z,10.37
2018-12-18T10:57:35.369Z,7.77
2018-12-18T11:00:11.517Z,8.13
2018-12-18T11:02:39.665Z,7.73
2018-12-18T11:05:08.011Z,6.67
2018-12-18T11:07:36.043Z,8.50
2018-12-18T11:10:04.708Z,9.93
2018-12-18T11:12:38.539Z,7.50
2018-12-18T11:15:08.388Z,7.77
2018-12-18T11:17:36.531Z,11.93
2018-12-18T11:20:06.363Z,12.17
2018-12-18T11:22:34.482Z,10.43
2018-12-18T11:25:02.799Z,11.10
2018-12-18T11:27:30.939Z,11.47
2018-12-18T11:29:59.104Z,7.70
2018-12-18T11:32:32.999Z,5.70
2018-12-18T11:34:57.403Z,6.23
2018-12-18T11:37:27.014Z,6.50
2018-12-18T11:39:55.250Z,7.20
2018-12-18T11:42:23.320Z,8.33
2018-12-18T11:44:51.429Z,6.93
2018-12-18T11:47:19.521Z,5.87
2018-12-18T11:49:47.620Z,4.20
2018-12-18T11:52:15.711Z,5.27
2018-12-18T11:54:43.845Z,4.57
2018-12-18T11:57:12.950Z,3.10
2018-12-18T11:59:41.639Z,2.87
2018-12-18T12:02:09.731Z,3.13
2018-12-18T12:04:37.857Z,4.53
2018-12-18T12:07:06.037Z,6.73
2018-12-18T12:09:34.216Z,7.47
2018-12-18T12:12:02.519Z,4.77
2018-12-18T12:14:30.578Z,8.23
2018-12-18T12:16:58.726Z,7.53
2018-12-18T12:19:31.861Z,6.47
2018-12-18T12:21:59.987Z,7.47
2018-12-18T12:24:28.118Z,6.90
2018-12-18T12:27:01.794Z,6.30
2018-12-18T12:29:29.949Z,5.73
2018-12-18T12:31:58.030Z,9.83
2018-12-18T12:34:26.183Z,5.33
2018-12-18T12:36:54.315Z,6.37
2018-12-18T12:39:31.932Z,6.93
2018-12-18T12:42:00.063Z,5.67
2018-12-18T12:44:28.192Z,6.03
2018-12-18T12:46:56.231Z,8.60
2018-12-18T12:49:28.903Z,8.83
2018-12-18T12:51:57.000Z,4.90
2018-12-18T12:54:25.171Z,4.37
2018-12-18T12:56:53.466Z,8.20
2018-12-18T12:59:21.585Z,6.43
2018-12-18T13:01:49.786Z,6.00
2018-12-18T13:04:17.960Z,8.00
2018-12-18T13:06:46.135Z,5.23
2018-12-18T13:09:14.225Z,4.00
2018-12-18T13:11:42.631Z,6.40
2018-12-18T13:14:10.770Z,6.20
2018-12-18T13:16:38.928Z,5.27
2018-12-18T13:19:07.098Z,4.47
2018-12-18T13:21:35.258Z,5.10
2018-12-18T13:24:03.453Z,6.30
2018-12-18T13:26:31.559Z,5.10
2018-12-18T13:28:59.733Z,5.57
2018-12-18T13:31:27.824Z,7.37
2018-12-18T13:33:55.897Z,8.20
2018-12-18T13:36:24.020Z,7.53
2018-12-18T13:38:52.118Z,5.50
2018-12-18T13:41:20.278Z,6.90
2018-12-18T13:43:48.379Z,4.40
2018-12-18T13:46:17.102Z,6.47
2018-12-18T13:48:45.245Z,7.00
2018-12-18T13:51:13.349Z,9.30
2018-12-18T13:53:41.762Z,6.07
2018-12-18T13:56:09.808Z,9.53
2018-12-18T13:58:37.959Z,5.33
2018-12-18T14:01:06.144Z,3.33
2018-12-18T14:03:34.274Z,15.10
2018-12-18T14:06:02.450Z,10.63
2018-12-18T14:08:30.606Z,4.17
2018-12-18T14:10:59.101Z,4.00
2018-12-18T14:13:27.212Z,5.23
2018-12-18T14:15:55.388Z,4.43
2018-12-18T14:18:23.770Z,3.53
2018-12-18T14:20:52.226Z,7.30
2018-12-18T14:23:20.336Z,7.83
2018-12-18T14:25:48.431Z,37.07
2018-12-18T14:28:16.569Z,15.83
2018-12-18T14:30:44.825Z,4.60
2018-12-18T14:33:12.920Z,5.90
2018-12-18T14:35:40.994Z,4.67
2018-12-18T14:38:09.086Z,6.00
2018-12-18T14:40:37.192Z,5.43
2018-12-18T14:43:06.060Z,8.33
2018-12-18T14:45:34.492Z,6.20
2018-12-18T14:48:02.593Z,9.23
2018-12-18T14:50:30.938Z,5.67
2018-12-18T14:52:59.061Z,5.73
2018-12-18T14:55:27.195Z,7.50
2018-12-18T14:57:55.528Z,7.30
2018-12-18T15:00:23.629Z,7.77
2018-12-18T15:02:51.729Z,5.90
2018-12-18T15:05:19.877Z,7.73
2018-12-18T15:07:48.000Z,6.53
2018-12-18T15:10:16.069Z,11.23
2018-12-18T15:12:50.537Z,5.50
2018-12-18T15:15:19.078Z,13.47
2018-12-18T15:17:47.158Z,9.67
2018-12-18T15:20:15.330Z,9.60
2018-12-18T15:22:43.531Z,9.80
2018-12-18T15:25:11.638Z,11.40
2018-12-18T15:27:39.758Z,14.87
2018-12-18T15:30:09.875Z,6.93
2018-12-18T15:32:38.802Z,8.60
2018-12-18T15:35:09.137Z,16.67
2018-12-18T15:37:38.895Z,18.00
2018-12-18T15:40:07.204Z,16.40
2018-12-18T15:42:35.421Z,7.50
2018-12-18T15:45:04.125Z,9.40
2018-12-18T15:47:32.262Z,8.70
2018-12-18T15:50:00.446Z,7.73
2018-12-18T15:52:28.657Z,9.47
2018-12-18T15:54:56.714Z,9.03
2018-12-18T15:57:24.845Z,8.83
2018-12-18T15:59:52.942Z,11.13
2018-12-18T16:02:24.222Z,10.87
2018-12-18T16:04:51.334Z,6.93
2018-12-18T16:07:19.508Z,12.57
2018-12-18T16:10:01.544Z,11.57
2018-12-18T16:12:29.653Z,12.47
2018-12-18T16:14:57.798Z,9.63
2018-12-18T16:17:25.982Z,11.07
2018-12-18T16:19:54.124Z,11.63
2018-12-18T16:22:22.208Z,7.90
2018-12-18T16:24:50.387Z,7.30
2018-12-18T16:27:18.526Z,8.17
2018-12-18T16:29:46.686Z,8.97
2018-12-18T16:32:14.772Z,8.17
2018-12-18T16:34:42.927Z,9.90
2018-12-18T16:37:11.074Z,9.63
2018-12-18T16:39:39.147Z,12.97
2018-12-18T16:42:08.281Z,9.80
2018-12-18T16:44:36.401Z,9.80
2018-12-18T16:47:05.213Z,10.63
2018-12-18T16:49:33.249Z,12.47
2018-12-18T16:52:01.355Z,12.80
2018-12-18T16:54:29.926Z,11.93
2018-12-18T16:56:58.244Z,14.37
2018-12-18T16:59:26.337Z,9.17
2018-12-18T17:01:54.434Z,7.43
2018-12-18T17:04:22.576Z,12.00
2018-12-18T17:06:50.704Z,12.43
2018-12-18T17:09:28.145Z,13.97
2018-12-18T17:11:56.623Z,17.70
2018-12-18T17:14:24.785Z,16.93
2018-12-18T17:16:54.874Z,14.10
2018-12-18T17:19:25.198Z,14.07
2018-12-18T17:21:53.427Z,12.50
2018-12-18T17:24:24.285Z,14.00
2018-12-18T17:26:52.417Z,13.40
2018-12-18T17:29:21.684Z,19.30
2018-12-18T17:31:51.608Z,11.87
2018-12-18T17:34:19.824Z,9.60
2018-12-18T17:36:48.846Z,11.20
2018-12-18T17:39:25.222Z,20.37
2018-12-18T17:41:54.423Z,15.10
2018-12-18T17:44:22.510Z,22.40
2018-12-18T17:46:50.640Z,9.93
2018-12-18T17:49:19.218Z,9.20
2018-12-18T17:51:47.345Z,12.10
2018-12-18T17:54:15.698Z,13.57
2018-12-18T17:56:43.864Z,12.63
2018-12-18T17:59:12.038Z,18.77
2018-12-18T18:01:40.147Z,10.17
2018-12-18T18:04:09.055Z,13.53
2018-12-18T18:06:37.239Z,14.40
2018-12-18T18:09:08.373Z,13.63
2018-12-18T18:11:36.704Z,10.53
2018-12-18T18:14:04.848Z,8.83
2018-12-18T18:16:32.955Z,11.80
2018-12-18T18:19:01.153Z,10.10
2018-12-18T18:21:29.294Z,12.57
2018-12-18T18:23:57.592Z,11.07
2018-12-18T18:26:25.763Z,9.27
2018-12-18T18:28:54.808Z,10.57
2018-12-18T18:31:23.177Z,11.57
2018-12-18T18:33:51.265Z,10.53
2018-12-18T18:36:20.058Z,10.33
2018-12-18T18:39:02.192Z,12.73
2018-12-18T18:41:30.340Z,12.17
2018-12-18T18:43:58.486Z,12.17
2018-12-18T18:46:26.550Z,9.83
2018-12-18T18:48:54.841Z,12.20
2018-12-18T18:51:23.011Z,12.57
2018-12-18T18:53:51.185Z,11.17
2018-12-18T18:56:19.953Z,25.80
2018-12-18T18:58:48.201Z,14.57
2018-12-18T19:01:17.086Z,19.40
2018-12-18T19:03:45.284Z,22.33
2018-12-18T19:06:13.450Z,29.60
2018-12-18T19:08:41.627Z,24.53
2018-12-18T19:11:09.791Z,16.67
2018-12-18T19:13:37.926Z,16.87
2018-12-18T19:16:06.257Z,28.70
2018-12-18T19:18:34.437Z,15.03
2018-12-18T19:21:02.657Z,11.93
2018-12-18T19:23:30.776Z,14.27
2018-12-18T19:25:58.951Z,11.00
2018-12-18T19:28:27.123Z,13.97
2018-12-18T19:30:55.340Z,16.33
2018-12-18T19:33:23.488Z,17.63
2018-12-18T19:35:51.770Z,16.20
2018-12-18T19:38:19.966Z,15.17
2018-12-18T19:40:53.427Z,15.53
2018-12-18T19:43:21.756Z,22.50
2018-12-18T19:45:50.059Z,15.13
2018-12-18T19:48:18.682Z,16.27
2018-12-18T19:50:53.042Z,16.27
2018-12-18T19:53:21.294Z,14.43
2018-12-18T19:55:49.434Z,13.83
2018-12-18T19:58:18.552Z,13.27
2018-12-18T20:00:46.997Z,15.03
2018-12-18T20:03:15.299Z,23.73
2018-12-18T20:05:43.445Z,18.90
2018-12-18T20:08:11.637Z,14.80
2018-12-18T20:10:40.263Z,17.83
2018-12-18T20:13:09.063Z,17.97
2018-12-18T20:15:37.290Z,15.70
2018-12-18T20:18:05.538Z,16.40
2018-12-18T20:20:33.784Z,18.40
2018-12-18T20:23:01.967Z,18.97
2018-12-18T20:25:30.293Z,22.77
2018-12-18T20:27:58.429Z,22.13
2018-12-18T20:30:26.896Z,21.13
2018-12-18T20:32:55.125Z,22.30
2018-12-18T20:35:23.367Z,20.30
2018-12-18T20:37:51.594Z,20.77
2018-12-18T20:40:20.040Z,23.80
2018-12-18T20:42:48.119Z,23.00
2018-12-18T20:45:16.243Z,21.50
2018-12-18T20:47:45.305Z,23.40
2018-12-18T20:50:18.764Z,20.63
2018-12-18T20:52:46.970Z,20.17
2018-12-18T20:55:15.205Z,22.13
2018-12-18T20:57:43.318Z,21.87
2018-12-18T21:00:14.101Z,20.97
2018-12-18T21:02:42.236Z,25.67
2018-12-18T21:05:10.754Z,27.70
2018-12-18T21:07:38.899Z,23.33
2018-12-18T21:10:08.463Z,24.73
2018-12-18T21:12:36.641Z,26.43
2018-12-18T21:15:06.059Z,23.90
2018-12-18T21:17:34.297Z,25.40
2018-12-18T21:20:02.852Z,22.97
2018-12-18T21:22:30.985Z,29.37
2018-12-18T21:24:59.037Z,25.93
2018-12-18T21:27:27.204Z,25.30
2018-12-18T21:30:14.338Z,26.63
2018-12-18T21:32:42.813Z,25.37
2018-12-18T21:35:11.026Z,25.40
2018-12-18T21:37:39.110Z,26.70
2018-12-18T21:40:07.801Z,23.30
2018-12-18T21:42:35.924Z,22.97
2018-12-18T21:45:04.737Z,26.03
2018-12-18T21:47:32.880Z,29.50
2018-12-18T21:50:01.109Z,26.57
2018-12-18T21:52:30.515Z,25.20
2018-12-18T21:54:58.680Z,30.03
2018-12-18T21:57:26.834Z,25.73
2018-12-18T22:00:05.839Z,33.13
2018-12-18T22:02:33.941Z,259.70
2018-12-18T22:05:02.005Z,160.90
2018-12-18T22:07:30.037Z,58.00
2018-12-18T22:09:58.216Z,29.27
2018-12-18T22:12:26.333Z,26.07
2018-12-18T22:14:54.564Z,25.23
2018-12-18T22:17:22.641Z,21.70
2018-12-18T22:19:50.732Z,23.93
2018-12-18T22:22:18.849Z,23.63
2018-12-18T22:24:46.926Z,19.83
2018-12-18T22:27:15.022Z,24.17
2018-12-18T22:29:43.186Z,19.37
2018-12-18T22:32:11.333Z,21.27
2018-12-18T22:34:39.370Z,23.37
2018-12-18T22:37:07.440Z,25.33
2018-12-18T22:39:35.556Z,23.33
2018-12-18T22:42:03.806Z,21.63
2018-12-18T22:44:31.831Z,25.50
2018-12-18T22:46:59.968Z,25.97
2018-12-18T22:49:28.247Z,20.30
2018-12-18T22:51:56.406Z,21.20
2018-12-18T22:54:24.508Z,25.63
2018-12-18T22:56:52.570Z,21.23
2018-12-18T22:59:30.179Z,22.93
2018-12-18T23:02:00.344Z,22.23
2018-12-18T23:04:28.460Z,21.47
2018-12-18T23:06:56.561Z,19.57
2018-12-18T23:09:24.673Z,22.53
2018-12-18T23:11:52.823Z,28.20
2018-12-18T23:14:20.929Z,23.67
2018-12-18T23:16:49.101Z,23.13
2018-12-18T23:19:23.935Z,24.20
2018-12-18T23:21:52.147Z,22.47
2018-12-18T23:24:20.264Z,24.30
2018-12-18T23:26:48.435Z,18.27
2018-12-18T23:29:16.559Z,21.70
2018-12-18T23:31:44.709Z,21.83
2018-12-18T23:34:12.804Z,22.07
2018-12-18T23:36:40.946Z,22.73
2018-12-18T23:39:08.994Z,22.47
2018-12-18T23:41:37.217Z,22.50
2018-12-18T23:44:05.289Z,19.17
2018-12-18T23:46:33.474Z,20.57
2018-12-18T23:49:01.922Z,22.37
2018-12-18T23:51:30.182Z,23.13
2018-12-18T23:53:58.241Z,20.87
2018-12-18T23:56:26.367Z,20.57
2018-12-18T23:58:54.434Z,21.13
